Tetange, Luxembourg
Current Conditions -  °F | °C
As of 10:20 PM on Wednesday 17 Dec 2014 (Local Time) from ELLX Reporting Station
Drizzle Drizzle  
Wind Chill: 46°   Ceiling: 100
Heat Index: 46°   Visibility: 0.31mi
Dew Point: 46°   Wind: 3mph
Humidity: 100%   Direction: NA
Pressure: 29.88"   Gusts: NA
Location:  49.48°N, 6.04°E
Report Text: ELLX 172120Z VRB03KT 0500 R24/1200VP1500N -DZ FG BKN001 08/08 Q1012 NOSIG
Loading
Personal Weather Stations






























Interactive Weather Map New forecast layout! Learn more

10-Day Weather Forecast

Advertisements
Track Severe Weather on mobile